Streetsville, Canada
Current Conditions -  °F | °C
As of 4:00 PM on Thursday 23 Oct 2014 (Local Time) from CYYZ Reporting Station
Few Clouds Few Clouds  
Wind Chill: 61°   Ceiling: Unl
Heat Index: 61°   Visibility: 15mi
Dew Point: 41°   Wind: 20mph
Humidity: 48%   Direction: 330°NNW
Pressure: 30.07"   Gusts: NA
Location:  43.58°N, 79.72°W
Report Text: CYYZ 232000Z 33017KT 15SM FEW035 16/05 A3007 RMK CF1 CF TR SLP184
Loading
Personal Weather Stations






























Interactive Weather Map
Tropical Storm Tracking
New forecast layout! Learn more

10-Day Weather Forecast

Advertisements
Track Severe Weather on mobile